Terminal Aerodrome Forecast
Issued by NWS

Home | Current Version | Previous Version | Text Only | Print | Product List | Glossary Off
Versions: 1 2 3 4 5 6 7 8 9 10 11 12 13

107
FTUS43 KGRB 180529
TAFAUW
TAF
KAUW 180529Z 1806/1906 24004KT P6SM SCT200
     FM180800 28008KT 6SM BR SCT120 WS020/30035KT
     FM181000 29007KT 6SM BR SCT110
     FM181600 28006KT P6SM SCT150
     FM190200 30004KT 5SM BR SCT120=

USA.gov is the U.S. government's official web portal to all federal, state and local government web resources and services.